createdAt,value
2022-10-19T00:01:14.963Z,3.90
2022-10-19T00:03:41.692Z,3.90
2022-10-19T00:06:34.241Z,3.67
2022-10-19T00:09:02.030Z,3.90
2022-10-19T00:11:28.693Z,3.73
2022-10-19T00:13:55.649Z,3.80
2022-10-19T00:16:22.201Z,3.90
2022-10-19T00:18:48.443Z,3.80
2022-10-19T00:21:16.519Z,3.90
2022-10-19T00:23:43.095Z,3.70
2022-10-19T00:26:09.580Z,3.90
2022-10-19T00:28:35.881Z,3.90
2022-10-19T00:31:04.251Z,3.80
2022-10-19T00:33:30.587Z,3.80
2022-10-19T00:35:56.891Z,3.80
2022-10-19T00:38:23.238Z,3.90
2022-10-19T00:40:49.443Z,4.00
2022-10-19T00:43:16.413Z,3.93
2022-10-19T00:45:42.709Z,3.83
2022-10-19T00:48:09.906Z,3.70
2022-10-19T00:50:36.306Z,3.90
2022-10-19T00:53:02.537Z,4.20
2022-10-19T00:55:28.791Z,3.90
2022-10-19T00:57:55.467Z,4.00
2022-10-19T01:00:21.686Z,4.00
2022-10-19T01:02:47.893Z,3.90
2022-10-19T01:05:14.548Z,4.00
2022-10-19T01:07:40.994Z,4.00
2022-10-19T01:10:07.563Z,4.13
2022-10-19T01:12:43.937Z,4.20
2022-10-19T01:15:10.161Z,4.13
2022-10-19T01:17:39.473Z,4.00
2022-10-19T01:20:05.681Z,4.20
2022-10-19T01:22:45.231Z,4.73
2022-10-19T01:25:30.179Z,4.00
2022-10-19T01:28:02.690Z,4.10
2022-10-19T01:30:35.429Z,4.23
2022-10-19T01:33:15.503Z,4.20
2022-10-19T01:35:57.815Z,4.10
2022-10-19T01:38:24.041Z,4.20
2022-10-19T01:40:55.923Z,4.00
2022-10-19T01:43:48.530Z,3.80
2022-10-19T01:46:28.769Z,4.00
2022-10-19T01:48:58.871Z,4.10
2022-10-19T01:51:35.596Z,3.90
2022-10-19T01:54:04.580Z,4.20
2022-10-19T01:56:47.187Z,3.90
2022-10-19T01:59:14.771Z,4.00
2022-10-19T02:01:43.843Z,4.10
2022-10-19T02:04:10.995Z,4.03
2022-10-19T02:06:37.470Z,4.27
2022-10-19T02:09:03.803Z,3.77
2022-10-19T02:11:31.117Z,4.10
2022-10-19T02:14:04.103Z,4.00
2022-10-19T02:16:33.238Z,3.80
2022-10-19T02:19:00.601Z,3.93
2022-10-19T02:21:26.907Z,3.90
2022-10-19T02:23:54.266Z,3.90
2022-10-19T02:26:21.142Z,4.03
2022-10-19T02:28:47.611Z,3.87
2022-10-19T02:31:13.941Z,3.87
2022-10-19T02:33:40.184Z,4.00
2022-10-19T02:36:06.563Z,3.80
2022-10-19T02:38:32.946Z,3.80
2022-10-19T02:41:02.707Z,3.90
2022-10-19T02:43:31.486Z,4.00
2022-10-19T02:46:02.252Z,3.90
2022-10-19T02:48:29.476Z,4.00
2022-10-19T02:50:55.752Z,4.00
2022-10-19T02:53:22.005Z,4.20
2022-10-19T02:55:48.905Z,4.10
2022-10-19T02:58:15.343Z,4.00
2022-10-19T03:00:41.686Z,4.03
2022-10-19T03:03:08.024Z,3.90
2022-10-19T03:05:34.248Z,4.20
2022-10-19T03:08:00.463Z,4.30
2022-10-19T03:10:26.763Z,4.27
2022-10-19T03:12:53.062Z,4.30
2022-10-19T03:15:19.500Z,4.20
2022-10-19T03:17:45.991Z,4.37
2022-10-19T03:20:12.304Z,4.30
2022-10-19T03:22:38.545Z,4.20
2022-10-19T03:25:05.049Z,4.27
2022-10-19T03:27:31.645Z,4.50
2022-10-19T03:29:58.108Z,4.20
2022-10-19T03:32:24.329Z,4.30
2022-10-19T03:34:50.553Z,4.00
2022-10-19T03:37:16.776Z,4.47
2022-10-19T03:39:43.020Z,4.20
2022-10-19T03:42:09.381Z,4.00
2022-10-19T03:44:35.625Z,4.50
2022-10-19T03:47:01.857Z,4.60
2022-10-19T03:49:28.184Z,4.20
2022-10-19T03:51:54.513Z,4.07
2022-10-19T03:54:23.656Z,4.23
2022-10-19T03:56:53.440Z,4.30
2022-10-19T03:59:19.808Z,4.10
2022-10-19T04:01:46.120Z,4.20
2022-10-19T04:04:14.295Z,4.00
2022-10-19T04:06:41.849Z,4.30
2022-10-19T04:09:09.237Z,4.10
2022-10-19T04:11:35.846Z,4.30
2022-10-19T04:14:02.265Z,4.23
2022-10-19T04:16:29.648Z,4.20
2022-10-19T04:18:55.870Z,4.20
2022-10-19T04:21:26.875Z,4.20
2022-10-19T04:23:53.851Z,4.20
2022-10-19T04:26:20.437Z,4.20
2022-10-19T04:28:46.781Z,4.30
2022-10-19T04:31:13.022Z,4.10
2022-10-19T04:33:39.831Z,4.60
2022-10-19T04:36:07.562Z,4.10
2022-10-19T04:38:34.405Z,4.30
2022-10-19T04:41:02.061Z,4.10
2022-10-19T04:43:28.297Z,4.23
2022-10-19T04:45:54.554Z,4.30
2022-10-19T04:48:20.878Z,4.50
2022-10-19T04:50:47.127Z,4.50
2022-10-19T04:53:13.430Z,4.20
2022-10-19T04:55:42.766Z,4.20
2022-10-19T04:58:09.034Z,4.23
2022-10-19T05:00:37.141Z,4.20
2022-10-19T05:03:03.453Z,4.00
2022-10-19T05:05:29.855Z,4.03
2022-10-19T05:07:56.076Z,3.90
2022-10-19T05:10:22.284Z,4.03
2022-10-19T05:12:48.509Z,4.20
2022-10-19T05:15:14.774Z,4.00
2022-10-19T05:17:41.051Z,4.20
2022-10-19T05:20:07.700Z,4.10
2022-10-19T05:22:34.028Z,4.20
2022-10-19T05:25:00.231Z,4.47
2022-10-19T05:27:26.583Z,4.20
2022-10-19T05:29:52.859Z,4.10
2022-10-19T05:32:19.147Z,4.00
2022-10-19T05:34:45.383Z,4.20
2022-10-19T05:37:11.666Z,4.20
2022-10-19T05:39:37.971Z,4.20
2022-10-19T05:42:04.275Z,4.07
2022-10-19T05:44:30.545Z,4.10
2022-10-19T05:46:56.776Z,4.30
2022-10-19T05:49:23.073Z,4.43
2022-10-19T05:51:49.719Z,4.30
2022-10-19T05:54:16.121Z,4.20
2022-10-19T05:56:42.916Z,4.30
2022-10-19T05:59:11.110Z,4.20
2022-10-19T06:01:37.381Z,4.30
2022-10-19T06:04:04.028Z,4.20
2022-10-19T06:06:30.630Z,4.20
2022-10-19T06:08:58.823Z,4.20
2022-10-19T06:11:26.504Z,4.20
2022-10-19T06:13:54.664Z,4.20
2022-10-19T06:16:21.346Z,4.10
2022-10-19T06:18:47.586Z,4.40
2022-10-19T06:21:16.266Z,4.30
2022-10-19T06:26:14.388Z,4.43
2022-10-19T06:28:41.782Z,4.20
2022-10-19T06:31:09.209Z,4.30
2022-10-19T06:33:35.884Z,4.23
2022-10-19T06:36:12.492Z,4.17
2022-10-19T06:38:39.058Z,4.20
2022-10-19T06:41:05.779Z,4.30
2022-10-19T06:43:32.259Z,4.20
2022-10-19T06:45:58.683Z,4.30
2022-10-19T06:48:24.954Z,4.20
2022-10-19T06:51:01.272Z,4.50
2022-10-19T06:53:29.042Z,4.40
2022-10-19T06:55:59.077Z,4.10
2022-10-19T06:58:25.846Z,4.20
2022-10-19T07:00:57.101Z,4.20
2022-10-19T07:03:24.582Z,4.30
2022-10-19T07:05:58.262Z,4.10
2022-10-19T07:08:25.018Z,4.30
2022-10-19T07:10:51.713Z,4.20
2022-10-19T07:13:18.263Z,4.30
2022-10-19T07:15:44.492Z,4.20
2022-10-19T07:18:10.787Z,4.20
2022-10-19T07:20:37.008Z,4.17
2022-10-19T07:23:03.332Z,4.40
2022-10-19T07:25:30.531Z,4.10
2022-10-19T07:27:57.071Z,4.20
2022-10-19T07:30:23.424Z,4.10
2022-10-19T07:32:49.725Z,4.10
2022-10-19T07:35:15.994Z,4.20
2022-10-19T07:37:42.239Z,4.10
2022-10-19T07:40:08.913Z,3.90
2022-10-19T07:42:37.620Z,3.93
2022-10-19T07:45:04.082Z,4.00
2022-10-19T07:47:30.344Z,3.93
2022-10-19T07:49:56.616Z,4.00
2022-10-19T07:52:22.867Z,4.03
2022-10-19T07:54:49.577Z,3.80
2022-10-19T07:57:16.098Z,3.90
2022-10-19T07:59:42.330Z,3.80
2022-10-19T08:02:16.723Z,3.73
2022-10-19T08:04:59.887Z,3.90
2022-10-19T08:07:28.234Z,3.90
2022-10-19T08:09:54.664Z,3.97
2022-10-19T08:12:21.006Z,4.00
2022-10-19T08:14:47.966Z,3.90
2022-10-19T08:17:17.341Z,3.90
2022-10-19T08:19:44.271Z,3.90
2022-10-19T08:22:10.637Z,3.87
2022-10-19T08:24:36.903Z,3.90
2022-10-19T08:27:03.543Z,3.90
2022-10-19T08:29:31.515Z,4.00
2022-10-19T08:31:58.541Z,3.90
2022-10-19T08:34:25.289Z,3.87
2022-10-19T08:36:51.641Z,4.00
2022-10-19T08:39:18.272Z,3.90
2022-10-19T08:44:23.609Z,3.70
2022-10-19T08:47:00.476Z,3.80
2022-10-19T08:49:30.308Z,3.70
2022-10-19T08:51:58.775Z,3.87
2022-10-19T08:54:31.683Z,3.90
2022-10-19T08:57:11.017Z,3.90
2022-10-19T08:59:59.891Z,3.80
2022-10-19T09:02:45.174Z,3.90
2022-10-19T09:05:16.259Z,3.70
2022-10-19T09:07:45.731Z,3.70
2022-10-19T09:10:15.651Z,3.80
2022-10-19T09:12:41.987Z,3.80
2022-10-19T09:15:12.644Z,3.70
2022-10-19T09:17:38.915Z,3.80
2022-10-19T09:20:16.105Z,3.80
2022-10-19T09:23:13.022Z,3.63
2022-10-19T09:25:40.253Z,3.70
2022-10-19T09:28:14.890Z,3.80
2022-10-19T09:30:43.097Z,4.77
2022-10-19T09:33:15.473Z,3.70
2022-10-19T09:35:48.281Z,3.60
2022-10-19T09:38:16.810Z,3.60
2022-10-19T09:40:43.734Z,3.60
2022-10-19T09:43:24.160Z,3.53
2022-10-19T09:45:53.761Z,3.60
2022-10-19T09:48:20.047Z,3.70
2022-10-19T09:50:51.344Z,3.50
2022-10-19T09:53:19.792Z,3.60
2022-10-19T09:58:15.511Z,3.70
2022-10-19T10:00:43.319Z,3.50
2022-10-19T10:03:28.430Z,3.70
2022-10-19T10:06:18.065Z,3.63
2022-10-19T10:08:48.880Z,3.47
2022-10-19T10:11:26.565Z,3.67
2022-10-19T10:13:54.042Z,3.60
2022-10-19T10:16:21.745Z,3.60
2022-10-19T10:18:55.555Z,3.40
2022-10-19T10:21:25.449Z,3.60
2022-10-19T10:24:05.489Z,3.60
2022-10-19T10:26:32.049Z,3.40
2022-10-19T10:29:01.322Z,3.50
2022-10-19T10:31:29.215Z,3.50
2022-10-19T10:34:06.358Z,3.37
2022-10-19T10:36:43.356Z,3.40
2022-10-19T10:39:15.758Z,3.30
2022-10-19T10:41:43.393Z,3.30
2022-10-19T10:44:20.788Z,3.37
2022-10-19T10:46:51.693Z,3.30
2022-10-19T10:49:23.086Z,3.20
2022-10-19T10:51:53.144Z,3.30
2022-10-19T10:54:19.587Z,3.20
2022-10-19T10:56:57.271Z,3.10
2022-10-19T10:59:26.483Z,3.00
2022-10-19T11:02:01.936Z,3.10
2022-10-19T11:04:34.687Z,2.90
2022-10-19T11:07:05.087Z,2.90
2022-10-19T11:09:34.862Z,2.87
2022-10-19T11:12:03.036Z,2.73
2022-10-19T11:14:29.621Z,2.60
2022-10-19T11:16:57.890Z,2.10
2022-10-19T11:19:24.261Z,2.20
2022-10-19T11:21:55.934Z,2.00
2022-10-19T11:24:35.304Z,1.90
2022-10-19T11:27:20.090Z,1.90
2022-10-19T11:30:05.406Z,1.70
2022-10-19T11:32:49.991Z,1.70
2022-10-19T11:35:39.613Z,1.60
2022-10-19T11:38:21.808Z,1.50
2022-10-19T11:43:56.705Z,1.60
2022-10-19T11:46:32.052Z,1.57
2022-10-19T11:49:18.534Z,1.60
2022-10-19T11:52:17.242Z,1.60
2022-10-19T11:54:55.830Z,1.67
2022-10-19T11:57:31.260Z,1.60
2022-10-19T12:00:14.644Z,1.60
2022-10-19T12:03:03.716Z,1.70
2022-10-19T12:05:33.091Z,1.70
2022-10-19T12:08:04.440Z,1.70
2022-10-19T12:10:46.456Z,1.60
2022-10-19T12:13:15.909Z,1.60
2022-10-19T12:15:50.537Z,1.50
2022-10-19T12:18:36.484Z,1.40
2022-10-19T12:21:04.800Z,1.40
2022-10-19T12:23:33.191Z,1.40
2022-10-19T12:26:00.871Z,1.40
2022-10-19T12:28:29.464Z,1.40
2022-10-19T12:30:59.075Z,1.30
2022-10-19T12:33:29.431Z,1.20
2022-10-19T12:36:07.860Z,1.20
2022-10-19T12:38:45.060Z,1.13
2022-10-19T12:41:26.894Z,1.20
2022-10-19T12:44:06.040Z,1.10
2022-10-19T12:46:38.554Z,1.10
2022-10-19T12:49:23.322Z,1.10
2022-10-19T12:51:49.661Z,0.90
2022-10-19T12:54:15.988Z,0.90
2022-10-19T12:56:49.685Z,0.90
2022-10-19T12:59:35.671Z,0.90
2022-10-19T13:02:04.950Z,0.87
2022-10-19T13:04:32.757Z,0.80
2022-10-19T13:07:01.355Z,0.80
2022-10-19T13:09:27.587Z,0.80
2022-10-19T13:12:12.746Z,0.80
2022-10-19T13:14:49.319Z,0.90
2022-10-19T13:17:49.473Z,0.90
2022-10-19T13:20:16.058Z,0.80
2022-10-19T13:22:44.936Z,0.90
2022-10-19T13:25:30.087Z,1.00
2022-10-19T13:28:02.495Z,0.90
2022-10-19T13:30:44.091Z,1.00
2022-10-19T13:33:24.516Z,1.00
2022-10-19T13:36:09.387Z,1.00
2022-10-19T13:38:41.476Z,1.10
2022-10-19T13:41:25.715Z,1.10
2022-10-19T13:43:58.206Z,1.20
2022-10-19T13:46:30.621Z,1.10
2022-10-19T13:49:16.939Z,1.20
2022-10-19T13:52:02.180Z,1.30
2022-10-19T13:54:37.621Z,1.30
2022-10-19T13:57:39.398Z,1.40
2022-10-19T14:00:14.078Z,1.40
2022-10-19T14:02:55.451Z,1.77
2022-10-19T14:05:44.864Z,1.40
2022-10-19T14:08:29.718Z,1.50
2022-10-19T14:11:01.517Z,1.57
2022-10-19T14:13:28.364Z,1.50
2022-10-19T14:15:56.100Z,1.50
2022-10-19T14:18:35.310Z,1.60
2022-10-19T14:21:03.579Z,1.60
2022-10-19T14:23:42.609Z,1.60
2022-10-19T14:26:21.743Z,1.60
2022-10-19T14:28:52.360Z,1.70
2022-10-19T14:31:20.436Z,1.70
2022-10-19T14:33:47.825Z,1.70
2022-10-19T14:36:46.939Z,1.70
2022-10-19T14:39:52.989Z,1.70
2022-10-19T14:42:27.698Z,1.70
2022-10-19T14:45:08.965Z,1.80
2022-10-19T14:48:00.787Z,1.90
2022-10-19T14:51:04.218Z,1.80
2022-10-19T14:53:36.340Z,1.80
2022-10-19T14:56:06.888Z,1.80
2022-10-19T14:58:36.606Z,1.90
2022-10-19T15:01:02.952Z,1.80
2022-10-19T15:03:29.635Z,1.90
2022-10-19T15:05:59.571Z,1.70
2022-10-19T15:08:31.957Z,1.70
2022-10-19T15:10:58.426Z,1.60
2022-10-19T15:13:24.819Z,1.60
2022-10-19T15:15:54.300Z,1.40
2022-10-19T15:18:44.151Z,1.40
2022-10-19T15:21:13.224Z,1.27
2022-10-19T15:23:43.602Z,1.10
2022-10-19T15:26:18.240Z,1.10
2022-10-19T15:28:45.056Z,1.20
2022-10-19T15:31:16.247Z,1.30
2022-10-19T15:33:47.744Z,1.30
2022-10-19T15:36:17.376Z,1.30
2022-10-19T15:38:47.669Z,1.33
2022-10-19T15:41:18.118Z,1.40
2022-10-19T15:43:54.122Z,1.40
2022-10-19T15:46:21.996Z,1.50
2022-10-19T15:48:55.175Z,1.60
2022-10-19T15:51:24.739Z,1.70
2022-10-19T15:54:01.081Z,1.63
2022-10-19T15:56:28.953Z,1.70
2022-10-19T15:58:56.168Z,1.80
2022-10-19T16:01:23.775Z,1.80
2022-10-19T16:03:53.270Z,1.90
2022-10-19T16:06:20.520Z,1.90
2022-10-19T16:08:46.988Z,1.90
2022-10-19T16:11:14.169Z,2.00
2022-10-19T16:13:40.544Z,2.10
2022-10-19T16:16:11.346Z,2.10
2022-10-19T16:18:38.109Z,2.10
2022-10-19T16:21:04.434Z,2.10
2022-10-19T16:23:39.300Z,2.10
2022-10-19T16:26:08.185Z,2.20
2022-10-19T16:28:34.884Z,2.20
2022-10-19T16:31:01.142Z,2.10
2022-10-19T16:33:27.423Z,2.40
2022-10-19T16:35:53.736Z,2.40
2022-10-19T16:38:20.530Z,2.40
2022-10-19T16:40:47.214Z,2.40
2022-10-19T16:43:15.743Z,2.50
2022-10-19T16:45:42.371Z,2.50
2022-10-19T16:48:10.003Z,2.60
2022-10-19T16:50:36.279Z,2.60
2022-10-19T16:53:04.378Z,2.60
2022-10-19T16:55:30.624Z,2.60
2022-10-19T16:57:57.255Z,2.60
2022-10-19T17:00:23.921Z,2.70
2022-10-19T17:02:50.355Z,2.70
2022-10-19T17:05:16.701Z,2.70
2022-10-19T17:07:42.959Z,2.80
2022-10-19T17:10:09.471Z,2.73
2022-10-19T17:12:36.056Z,2.80
2022-10-19T17:15:36.955Z,2.80
2022-10-19T17:17:48.749Z,2.90
2022-10-19T17:20:15.671Z,2.90
2022-10-19T17:22:41.907Z,2.80
2022-10-19T17:25:08.318Z,2.73
2022-10-19T17:27:34.553Z,2.90
2022-10-19T17:30:00.792Z,2.80
2022-10-19T17:32:27.079Z,2.77
2022-10-19T17:34:53.855Z,2.80
2022-10-19T17:37:20.105Z,3.00
2022-10-19T17:39:49.804Z,3.00
2022-10-19T17:42:16.065Z,2.90
2022-10-19T17:44:42.285Z,2.90
2022-10-19T17:47:08.610Z,3.00
2022-10-19T17:49:34.886Z,2.90
2022-10-19T17:52:01.116Z,2.80
2022-10-19T17:54:27.423Z,2.90
2022-10-19T17:56:53.894Z,2.80
2022-10-19T17:59:30.160Z,2.90
2022-10-19T18:02:01.669Z,2.80
2022-10-19T18:04:27.955Z,3.00
2022-10-19T18:06:54.206Z,3.00
2022-10-19T18:09:20.437Z,2.90
2022-10-19T18:11:46.682Z,3.00
2022-10-19T18:14:13.547Z,2.83
2022-10-19T18:16:47.369Z,3.00
2022-10-19T18:19:14.461Z,2.90
2022-10-19T18:21:42.812Z,3.00
2022-10-19T18:24:14.380Z,3.07
2022-10-19T18:26:41.824Z,2.90
2022-10-19T18:29:12.830Z,2.90
2022-10-19T18:31:39.631Z,3.00
2022-10-19T18:34:06.991Z,3.00
2022-10-19T18:36:33.373Z,3.03
2022-10-19T18:39:00.987Z,3.00
2022-10-19T18:41:30.125Z,3.10
2022-10-19T18:43:57.693Z,3.00
2022-10-19T18:46:25.052Z,2.90
2022-10-19T18:48:51.471Z,3.00
2022-10-19T18:51:18.747Z,3.20
2022-10-19T18:53:45.726Z,3.00
2022-10-19T18:56:14.140Z,3.30
2022-10-19T18:58:40.705Z,3.10
2022-10-19T19:01:07.001Z,3.30
2022-10-19T19:03:34.017Z,3.30
2022-10-19T19:06:04.942Z,3.20
2022-10-19T19:08:31.326Z,3.07
2022-10-19T19:10:57.687Z,3.00
2022-10-19T19:13:24.031Z,3.10
2022-10-19T19:15:59.570Z,3.27
2022-10-19T19:18:26.285Z,3.20
2022-10-19T19:20:52.773Z,3.20
2022-10-19T19:23:19.237Z,3.07
2022-10-19T19:25:45.649Z,3.03
2022-10-19T19:28:12.061Z,3.17
2022-10-19T19:30:41.825Z,3.10
2022-10-19T19:33:08.243Z,3.10
2022-10-19T19:35:34.636Z,3.10
2022-10-19T19:38:00.984Z,3.20
2022-10-19T19:40:27.299Z,3.20
2022-10-19T19:42:53.538Z,3.47
2022-10-19T19:45:19.754Z,3.20
2022-10-19T19:47:45.992Z,3.30
2022-10-19T19:50:12.236Z,3.30
2022-10-19T19:52:40.529Z,3.30
2022-10-19T19:55:07.033Z,3.20
2022-10-19T19:57:33.680Z,3.30
2022-10-19T20:00:00.095Z,3.50
2022-10-19T20:02:26.656Z,3.27
2022-10-19T20:04:52.936Z,3.30
2022-10-19T20:07:19.192Z,3.30
2022-10-19T20:09:45.531Z,3.50
2022-10-19T20:12:11.802Z,3.60
2022-10-19T20:14:38.018Z,3.50
2022-10-19T20:17:04.543Z,3.47
2022-10-19T20:19:30.849Z,3.50
2022-10-19T20:21:58.222Z,3.63
2022-10-19T20:24:24.439Z,3.33
2022-10-19T20:26:50.760Z,3.47
2022-10-19T20:29:17.021Z,3.33
2022-10-19T20:31:43.278Z,3.40
2022-10-19T20:34:10.883Z,3.40
2022-10-19T20:36:37.230Z,3.57
2022-10-19T20:39:03.506Z,3.40
2022-10-19T20:41:29.752Z,3.50
2022-10-19T20:43:56.228Z,3.53
2022-10-19T20:46:24.699Z,3.60
2022-10-19T20:48:51.643Z,3.40
2022-10-19T20:51:24.773Z,3.50
2022-10-19T20:53:52.763Z,3.40
2022-10-19T20:56:21.571Z,3.30
2022-10-19T20:58:47.808Z,3.30
2022-10-19T21:01:15.367Z,3.27
2022-10-19T21:03:52.647Z,3.43
2022-10-19T21:06:19.467Z,3.60
2022-10-19T21:08:45.706Z,3.43
2022-10-19T21:11:31.228Z,3.50
2022-10-19T21:14:02.160Z,3.43
2022-10-19T21:16:30.205Z,3.50
2022-10-19T21:18:56.918Z,3.60
2022-10-19T21:21:34.196Z,3.70
2022-10-19T21:24:03.814Z,3.60
2022-10-19T21:26:31.209Z,3.70
2022-10-19T21:28:57.455Z,3.60
2022-10-19T21:31:24.590Z,3.60
2022-10-19T21:33:51.615Z,3.50
2022-10-19T21:36:18.366Z,3.70
2022-10-19T21:38:44.568Z,3.50
2022-10-19T21:41:12.279Z,3.60
2022-10-19T21:43:38.619Z,3.50
2022-10-19T21:46:06.074Z,3.50
2022-10-19T21:48:33.082Z,3.50
2022-10-19T21:50:59.413Z,3.50
2022-10-19T21:53:25.719Z,3.50
2022-10-19T21:55:52.793Z,3.53
2022-10-19T21:58:21.896Z,3.70
2022-10-19T22:00:48.158Z,3.70
2022-10-19T22:05:48.966Z,3.50
2022-10-19T22:08:15.263Z,3.50
2022-10-19T22:10:41.525Z,3.57
2022-10-19T22:13:07.848Z,3.60
2022-10-19T22:15:37.432Z,3.57
2022-10-19T22:18:03.706Z,3.60
2022-10-19T22:20:29.926Z,3.77
2022-10-19T22:22:56.160Z,3.60
2022-10-19T22:25:22.429Z,3.60
2022-10-19T22:27:48.676Z,3.60
2022-10-19T22:30:14.981Z,3.60
2022-10-19T22:32:41.231Z,3.40
2022-10-19T22:35:07.673Z,3.53
2022-10-19T22:37:34.320Z,3.70
2022-10-19T22:40:00.545Z,3.63
2022-10-19T22:42:26.789Z,3.77
2022-10-19T22:44:53.040Z,3.60
2022-10-19T22:47:19.319Z,3.50
2022-10-19T22:49:45.736Z,3.50
2022-10-19T22:52:12.014Z,3.60
2022-10-19T22:54:38.254Z,3.60
2022-10-19T22:57:04.490Z,3.90
2022-10-19T22:59:30.820Z,3.50
2022-10-19T23:01:57.111Z,3.50
2022-10-19T23:04:23.430Z,3.60
2022-10-19T23:06:49.721Z,3.50
2022-10-19T23:09:15.951Z,3.60
2022-10-19T23:11:42.195Z,3.50
2022-10-19T23:14:08.564Z,3.60
2022-10-19T23:16:34.880Z,3.70
2022-10-19T23:19:01.154Z,3.57
2022-10-19T23:21:27.432Z,3.50
2022-10-19T23:23:53.673Z,3.60
2022-10-19T23:26:20.397Z,3.50
2022-10-19T23:28:47.739Z,3.90
2022-10-19T23:31:16.491Z,3.70
2022-10-19T23:33:43.568Z,3.40
2022-10-19T23:36:11.886Z,3.40
2022-10-19T23:38:38.162Z,3.57
2022-10-19T23:41:04.483Z,3.53
2022-10-19T23:43:31.080Z,3.30
2022-10-19T23:45:57.373Z,3.43
2022-10-19T23:48:23.878Z,3.50
2022-10-19T23:50:56.911Z,3.40
2022-10-19T23:53:23.276Z,14.13
2022-10-19T23:55:49.510Z,3.50
2022-10-19T23:58:15.766Z,7.30
